createdAt,value
2023-04-19T00:01:38.247Z,4.70
2023-04-19T00:04:08.357Z,5.10
2023-04-19T00:06:36.497Z,4.40
2023-04-19T00:09:08.504Z,4.70
2023-04-19T00:11:36.481Z,4.30
2023-04-19T00:14:04.411Z,4.40
2023-04-19T00:16:32.259Z,4.50
2023-04-19T00:19:00.556Z,4.10
2023-04-19T00:21:28.650Z,4.30
2023-04-19T00:23:56.623Z,3.90
2023-04-19T00:26:24.432Z,3.60
2023-04-19T00:28:52.794Z,4.80
2023-04-19T00:31:20.734Z,4.50
2023-04-19T00:33:48.732Z,4.20
2023-04-19T00:36:16.729Z,5.10
2023-04-19T00:38:44.781Z,4.10
2023-04-19T00:41:12.922Z,4.50
2023-04-19T00:43:40.970Z,4.30
2023-04-19T00:46:09.141Z,4.40
2023-04-19T00:48:37.416Z,4.30
2023-04-19T00:51:05.606Z,4.00
2023-04-19T00:53:34.322Z,4.00
2023-04-19T00:56:05.383Z,4.40
2023-04-19T00:58:33.381Z,4.50
2023-04-19T01:01:01.471Z,4.50
2023-04-19T01:03:29.835Z,4.20
2023-04-19T01:05:58.236Z,4.30
2023-04-19T01:08:26.170Z,4.20
2023-04-19T01:10:55.263Z,4.70
2023-04-19T01:13:23.317Z,4.50
2023-04-19T01:15:51.756Z,4.90
2023-04-19T01:23:21.432Z,4.80
2023-04-19T01:25:50.605Z,5.00
2023-04-19T01:28:18.586Z,4.60
2023-04-19T01:30:46.454Z,5.10
2023-04-19T01:33:14.392Z,4.80
2023-04-19T01:35:42.459Z,5.90
2023-04-19T01:38:10.510Z,5.20
2023-04-19T01:40:38.741Z,4.80
2023-04-19T01:43:08.045Z,4.40
2023-04-19T01:45:36.962Z,4.80
2023-04-19T01:48:05.184Z,4.80
2023-04-19T01:53:05.729Z,4.40
2023-04-19T01:55:33.873Z,3.90
2023-04-19T01:58:01.968Z,3.90
2023-04-19T02:00:30.529Z,4.40
2023-04-19T02:02:58.766Z,4.00
2023-04-19T02:05:26.779Z,4.30
2023-04-19T02:07:55.059Z,4.20
2023-04-19T02:10:23.101Z,4.40
2023-04-19T02:12:51.752Z,4.60
2023-04-19T02:15:19.680Z,4.30
2023-04-19T02:17:47.738Z,4.00
2023-04-19T02:20:15.831Z,4.40
2023-04-19T02:22:44.021Z,4.60
2023-04-19T02:25:12.572Z,4.20
2023-04-19T02:27:40.776Z,3.80
2023-04-19T02:30:09.629Z,4.40
2023-04-19T02:32:37.610Z,4.30
2023-04-19T02:35:07.950Z,4.40
2023-04-19T02:37:35.846Z,4.10
2023-04-19T02:40:05.382Z,5.00
2023-04-19T02:42:33.265Z,4.50
2023-04-19T02:45:01.266Z,4.40
2023-04-19T02:47:29.643Z,4.30
2023-04-19T02:49:57.929Z,4.60
2023-04-19T02:52:27.095Z,4.30
2023-04-19T02:54:55.528Z,4.50
2023-04-19T02:57:23.517Z,4.90
2023-04-19T02:59:51.810Z,4.20
2023-04-19T03:02:20.028Z,6.00
2023-04-19T03:04:48.542Z,4.60
2023-04-19T03:07:17.152Z,4.60
2023-04-19T03:09:45.337Z,4.70
2023-04-19T03:12:13.309Z,4.20
2023-04-19T03:14:41.431Z,4.50
2023-04-19T03:17:09.520Z,4.30
2023-04-19T03:19:38.117Z,4.70
2023-04-19T03:22:06.433Z,4.10
2023-04-19T03:24:37.132Z,4.30
2023-04-19T03:27:17.023Z,3.90
2023-04-19T03:29:48.800Z,4.00
2023-04-19T03:32:17.098Z,4.10
2023-04-19T03:34:45.022Z,4.60
2023-04-19T03:37:13.535Z,4.30
2023-04-19T03:39:41.568Z,4.60
2023-04-19T03:42:11.589Z,4.40
2023-04-19T03:45:09.412Z,4.60
2023-04-19T03:47:41.224Z,4.90
2023-04-19T03:50:12.765Z,4.70
2023-04-19T03:52:42.225Z,4.50
2023-04-19T03:55:12.349Z,5.50
2023-04-19T03:57:41.565Z,4.90
2023-04-19T04:00:16.731Z,3.80
2023-04-19T04:02:47.023Z,4.40
2023-04-19T04:05:15.245Z,6.00
2023-04-19T04:07:43.327Z,9.60
2023-04-19T04:10:11.388Z,9.10
2023-04-19T04:12:43.009Z,6.30
2023-04-19T04:15:14.740Z,6.10
2023-04-19T04:17:47.749Z,5.90
2023-04-19T04:20:16.671Z,5.60
2023-04-19T04:22:46.681Z,5.90
2023-04-19T04:25:16.092Z,5.40
2023-04-19T04:27:45.024Z,6.50
2023-04-19T04:30:16.332Z,6.40
2023-04-19T04:32:47.143Z,6.70
2023-04-19T04:35:15.782Z,6.30
2023-04-19T04:37:54.053Z,6.60
2023-04-19T04:40:22.124Z,7.80
2023-04-19T04:42:54.323Z,6.40
2023-04-19T04:45:24.276Z,7.10
2023-04-19T04:47:52.920Z,7.10
2023-04-19T04:50:20.881Z,7.10
2023-04-19T04:52:49.896Z,6.00
2023-04-19T04:55:22.358Z,6.10
2023-04-19T04:57:50.736Z,6.20
2023-04-19T05:00:34.572Z,7.20
2023-04-19T05:03:05.513Z,5.70
2023-04-19T05:05:37.204Z,6.20
2023-04-19T05:08:05.425Z,6.70
2023-04-19T05:10:33.513Z,7.20
2023-04-19T05:13:01.656Z,7.30
2023-04-19T05:15:30.868Z,7.70
2023-04-19T05:17:59.039Z,5.50
2023-04-19T05:20:29.068Z,5.20
2023-04-19T05:23:05.960Z,5.40
2023-04-19T05:25:34.997Z,5.70
2023-04-19T05:28:04.419Z,5.40
2023-04-19T05:30:39.359Z,6.30
2023-04-19T05:33:07.723Z,6.20
2023-04-19T05:35:35.808Z,6.10
2023-04-19T05:38:03.880Z,6.20
2023-04-19T05:40:32.245Z,5.90
2023-04-19T05:43:00.170Z,6.70
2023-04-19T05:45:28.201Z,6.70
2023-04-19T05:47:56.348Z,7.00
2023-04-19T05:50:42.568Z,8.00
2023-04-19T05:53:29.223Z,8.10
2023-04-19T05:55:58.120Z,9.30
2023-04-19T05:58:27.209Z,8.10
2023-04-19T06:00:55.673Z,8.00
2023-04-19T06:03:27.698Z,7.90
2023-04-19T06:05:59.977Z,6.80
2023-04-19T06:08:28.113Z,7.70
2023-04-19T06:11:02.114Z,7.50
2023-04-19T06:13:33.183Z,7.40
2023-04-19T06:16:01.323Z,7.20
2023-04-19T06:18:30.034Z,6.40
2023-04-19T06:20:57.915Z,7.50
2023-04-19T06:23:27.010Z,7.70
2023-04-19T06:25:54.986Z,8.00
2023-04-19T06:28:22.922Z,8.10
2023-04-19T06:30:50.925Z,7.90
2023-04-19T06:33:18.971Z,8.50
2023-04-19T06:35:46.862Z,8.30
2023-04-19T06:38:18.096Z,9.50
2023-04-19T06:40:47.564Z,9.30
2023-04-19T06:43:17.783Z,9.70
2023-04-19T06:45:46.642Z,9.40
2023-04-19T06:48:17.809Z,9.70
2023-04-19T06:50:45.715Z,9.70
2023-04-19T06:53:13.639Z,10.30
2023-04-19T06:55:41.536Z,10.30
2023-04-19T06:58:12.999Z,10.10
2023-04-19T07:00:41.061Z,9.70
2023-04-19T07:03:09.204Z,10.00
2023-04-19T07:05:37.163Z,9.70
2023-04-19T07:08:05.157Z,11.30
2023-04-19T07:10:33.072Z,12.50
2023-04-19T07:13:00.990Z,9.90
2023-04-19T07:15:29.050Z,10.20
2023-04-19T07:17:57.046Z,11.00
2023-04-19T07:20:25.170Z,11.10
2023-04-19T07:22:53.126Z,11.20
2023-04-19T07:25:36.063Z,9.60
2023-04-19T07:28:04.721Z,9.40
2023-04-19T07:30:32.647Z,7.20
2023-04-19T07:33:00.754Z,5.00
2023-04-19T07:35:31.451Z,5.40
2023-04-19T07:37:59.506Z,4.70
2023-04-19T07:40:27.384Z,5.70
2023-04-19T07:42:55.840Z,6.00
2023-04-19T07:45:24.095Z,6.00
2023-04-19T07:47:52.073Z,4.90
2023-04-19T07:50:21.828Z,4.80
2023-04-19T07:55:19.478Z,4.40
2023-04-19T07:57:48.584Z,4.10
2023-04-19T08:00:18.306Z,4.20
2023-04-19T08:02:47.290Z,4.20
2023-04-19T08:05:20.207Z,4.30
2023-04-19T08:07:48.411Z,4.10
2023-04-19T08:10:18.486Z,3.70
2023-04-19T08:12:57.353Z,3.90
2023-04-19T08:18:07.174Z,3.40
2023-04-19T08:20:35.511Z,3.20
2023-04-19T08:23:14.476Z,3.50
2023-04-19T08:25:49.535Z,3.70
2023-04-19T08:28:19.020Z,3.60
2023-04-19T08:30:47.078Z,3.70
2023-04-19T08:33:15.344Z,3.10
2023-04-19T08:35:46.006Z,5.60
2023-04-19T08:40:47.113Z,3.00
2023-04-19T08:43:58.692Z,4.80
2023-04-19T08:46:33.709Z,4.20
2023-04-19T08:49:04.603Z,3.40
2023-04-19T08:51:34.036Z,6.40
2023-04-19T08:54:05.874Z,3.90
2023-04-19T08:56:36.800Z,3.90
2023-04-19T08:59:17.966Z,3.50
2023-04-19T09:01:56.360Z,3.20
2023-04-19T09:04:36.359Z,3.60
2023-04-19T09:07:05.438Z,5.00
2023-04-19T09:09:39.133Z,3.10
2023-04-19T09:12:18.347Z,3.00
2023-04-19T09:15:00.593Z,2.90
2023-04-19T09:17:39.873Z,3.50
2023-04-19T09:20:08.543Z,4.40
2023-04-19T09:22:38.126Z,3.60
2023-04-19T09:27:37.634Z,3.10
2023-04-19T09:30:10.784Z,3.40
2023-04-19T09:32:48.781Z,5.20
2023-04-19T09:35:19.763Z,2.90
2023-04-19T09:38:06.048Z,3.30
2023-04-19T09:40:35.093Z,3.50
2023-04-19T09:45:44.718Z,2.80
2023-04-19T09:48:14.129Z,2.70
2023-04-19T09:51:01.806Z,2.60
2023-04-19T09:53:35.429Z,2.40
2023-04-19T09:56:05.489Z,2.30
2023-04-19T09:58:46.882Z,2.20
2023-04-19T10:01:20.467Z,2.40
2023-04-19T10:03:50.654Z,2.10
2023-04-19T10:08:57.120Z,2.20
2023-04-19T10:11:27.636Z,1.90
2023-04-19T10:14:01.457Z,1.70
2023-04-19T10:16:31.428Z,2.40
2023-04-19T10:19:00.117Z,2.00
2023-04-19T10:21:30.038Z,1.80
2023-04-19T10:24:02.880Z,1.80
2023-04-19T10:26:31.059Z,2.50
2023-04-19T10:28:59.196Z,2.30
2023-04-19T10:31:27.299Z,2.00
2023-04-19T10:33:55.654Z,1.90
2023-04-19T10:36:28.595Z,2.00
2023-04-19T10:38:56.953Z,2.20
2023-04-19T10:41:58.094Z,2.10
2023-04-19T10:44:26.247Z,2.00
2023-04-19T10:46:54.947Z,2.10
2023-04-19T10:49:28.135Z,2.10
2023-04-19T10:51:58.043Z,2.90
2023-04-19T10:54:38.821Z,2.00
2023-04-19T10:57:09.232Z,1.60
2023-04-19T11:02:25.203Z,1.90
2023-04-19T11:04:53.860Z,1.90
2023-04-19T11:07:22.398Z,2.10
2023-04-19T11:09:52.021Z,1.90
2023-04-19T11:12:21.870Z,2.10
2023-04-19T11:15:03.042Z,1.70
2023-04-19T11:17:32.673Z,2.10
2023-04-19T11:20:12.738Z,1.80
2023-04-19T11:22:49.845Z,1.90
2023-04-19T11:25:20.757Z,1.90
2023-04-19T11:27:53.477Z,1.90
2023-04-19T11:30:28.552Z,2.20
2023-04-19T11:32:57.596Z,2.10
2023-04-19T11:35:30.406Z,1.80
2023-04-19T11:37:59.568Z,2.00
2023-04-19T11:40:27.647Z,2.10
2023-04-19T11:43:02.283Z,1.80
2023-04-19T11:45:38.576Z,1.60
2023-04-19T11:48:17.033Z,1.80
2023-04-19T11:50:46.838Z,1.60
2023-04-19T11:53:17.963Z,1.90
2023-04-19T11:55:51.748Z,2.30
2023-04-19T11:58:57.311Z,1.90
2023-04-19T12:01:26.078Z,2.20
2023-04-19T12:03:58.990Z,2.00
2023-04-19T12:06:29.892Z,2.00
2023-04-19T12:08:58.131Z,2.20
2023-04-19T12:11:41.706Z,1.80
2023-04-19T12:14:14.265Z,2.00
2023-04-19T12:16:44.998Z,2.00
2023-04-19T12:19:22.288Z,2.00
2023-04-19T12:21:50.382Z,1.80
2023-04-19T12:24:21.179Z,1.90
2023-04-19T12:26:57.377Z,1.90
2023-04-19T12:29:27.535Z,1.80
2023-04-19T12:31:55.944Z,1.90
2023-04-19T12:34:23.983Z,2.10
2023-04-19T12:36:52.021Z,2.00
2023-04-19T12:39:19.997Z,1.90
2023-04-19T12:41:49.066Z,1.80
2023-04-19T12:44:17.181Z,2.00
2023-04-19T12:46:45.112Z,1.90
2023-04-19T12:49:13.274Z,1.90
2023-04-19T12:51:42.692Z,2.00
2023-04-19T12:54:10.911Z,1.70
2023-04-19T12:56:39.013Z,1.50
2023-04-19T12:59:07.089Z,1.60
2023-04-19T13:01:35.413Z,1.80
2023-04-19T13:04:03.949Z,2.20
2023-04-19T13:06:32.146Z,2.20
2023-04-19T13:09:01.590Z,2.20
2023-04-19T13:11:33.749Z,1.80
2023-04-19T13:14:03.864Z,2.10
2023-04-19T13:16:32.119Z,2.10
2023-04-19T13:19:00.251Z,1.80
2023-04-19T13:21:28.751Z,2.10
2023-04-19T13:24:03.421Z,2.10
2023-04-19T13:26:36.879Z,2.00
2023-04-19T13:29:05.451Z,2.10
2023-04-19T13:31:33.501Z,2.30
2023-04-19T13:34:01.859Z,2.40
2023-04-19T13:36:29.908Z,2.50
2023-04-19T13:38:57.743Z,2.20
2023-04-19T13:41:25.950Z,2.80
2023-04-19T13:43:54.007Z,2.10
2023-04-19T13:46:22.051Z,2.40
2023-04-19T13:48:52.805Z,2.50
2023-04-19T13:51:20.854Z,2.50
2023-04-19T13:53:48.807Z,2.50
2023-04-19T13:56:19.181Z,2.00
2023-04-19T13:58:47.148Z,2.70
2023-04-19T14:01:15.303Z,2.10
2023-04-19T14:03:43.430Z,2.10
2023-04-19T14:06:11.636Z,2.10
2023-04-19T14:08:39.650Z,2.30
2023-04-19T14:11:12.360Z,2.70
2023-04-19T14:13:41.422Z,5.60
2023-04-19T14:16:09.336Z,6.30
2023-04-19T14:18:37.284Z,5.90
2023-04-19T14:21:05.686Z,6.00
2023-04-19T14:23:33.929Z,5.70
2023-04-19T14:26:03.558Z,4.70
2023-04-19T14:28:36.865Z,5.70
2023-04-19T14:31:04.963Z,5.00
2023-04-19T14:33:33.296Z,5.60
2023-04-19T14:36:03.354Z,4.90
2023-04-19T14:38:31.945Z,4.80
2023-04-19T14:40:59.960Z,4.30
2023-04-19T14:43:27.913Z,3.90
2023-04-19T14:45:56.710Z,4.80
2023-04-19T14:48:24.763Z,5.50
2023-04-19T14:50:52.777Z,5.70
2023-04-19T14:53:26.893Z,4.60
2023-04-19T14:55:54.927Z,4.60
2023-04-19T14:58:22.842Z,5.70
2023-04-19T15:00:50.967Z,8.20
2023-04-19T15:03:19.208Z,8.10
2023-04-19T15:05:47.545Z,4.10
2023-04-19T15:08:29.178Z,4.00
2023-04-19T15:10:58.744Z,4.90
2023-04-19T15:13:27.035Z,4.20
2023-04-19T15:15:55.295Z,3.70
2023-04-19T15:18:23.617Z,4.00
2023-04-19T15:20:51.572Z,4.30
2023-04-19T15:23:39.268Z,3.60
2023-04-19T15:26:15.264Z,3.50
2023-04-19T15:28:43.419Z,3.50
2023-04-19T15:31:11.555Z,3.80
2023-04-19T15:33:39.610Z,3.80
2023-04-19T15:36:07.732Z,3.80
2023-04-19T15:38:36.105Z,4.30
2023-04-19T15:41:04.689Z,4.10
2023-04-19T15:43:32.616Z,4.20
2023-04-19T15:46:01.101Z,4.30
2023-04-19T15:48:31.356Z,3.90
2023-04-19T15:51:01.414Z,3.80
2023-04-19T15:53:29.563Z,3.80
2023-04-19T15:55:57.639Z,4.10
2023-04-19T15:58:25.705Z,4.40
2023-04-19T16:00:53.981Z,4.50
2023-04-19T16:03:22.300Z,4.40
2023-04-19T16:05:51.777Z,3.40
2023-04-19T16:08:20.054Z,3.30
2023-04-19T16:10:49.531Z,3.20
2023-04-19T16:13:17.517Z,3.40
2023-04-19T16:15:45.797Z,3.60
2023-04-19T16:18:14.178Z,3.10
2023-04-19T16:20:42.213Z,2.80
2023-04-19T16:23:10.219Z,3.20
2023-04-19T16:25:38.192Z,3.50
2023-04-19T16:28:06.515Z,4.00
2023-04-19T16:30:34.557Z,4.50
2023-04-19T16:33:02.781Z,4.80
2023-04-19T16:35:30.895Z,4.60
2023-04-19T16:38:00.626Z,4.10
2023-04-19T16:41:14.285Z,5.50
2023-04-19T16:43:45.404Z,4.80
2023-04-19T16:46:13.443Z,5.60
2023-04-19T16:48:42.951Z,6.70
2023-04-19T16:51:10.996Z,7.10
2023-04-19T16:53:39.018Z,7.60
2023-04-19T16:56:07.140Z,6.60
2023-04-19T16:58:35.212Z,6.70
2023-04-19T17:01:03.711Z,6.90
2023-04-19T17:03:31.995Z,6.20
2023-04-19T17:06:01.473Z,6.10
2023-04-19T17:08:29.437Z,7.90
2023-04-19T17:10:57.528Z,6.20
2023-04-19T17:13:26.511Z,6.60
2023-04-19T17:15:54.518Z,7.00
2023-04-19T17:18:22.680Z,7.70
2023-04-19T17:20:50.902Z,9.00
2023-04-19T17:23:19.013Z,9.60
2023-04-19T17:25:46.925Z,9.80
2023-04-19T17:28:14.815Z,9.70
2023-04-19T17:30:42.814Z,8.40
2023-04-19T17:33:10.956Z,9.40
2023-04-19T17:35:39.005Z,8.40
2023-04-19T17:38:07.423Z,8.70
2023-04-19T17:40:35.486Z,7.50
2023-04-19T17:43:03.905Z,8.90
2023-04-19T17:45:31.930Z,9.00
2023-04-19T17:48:00.211Z,12.20
2023-04-19T17:50:30.031Z,11.60
2023-04-19T17:52:58.019Z,12.80
2023-04-19T17:55:26.509Z,16.80
2023-04-19T17:57:55.975Z,14.90
2023-04-19T18:00:26.616Z,13.90
2023-04-19T18:02:54.662Z,11.90
2023-04-19T18:05:23.005Z,12.00
2023-04-19T18:07:51.446Z,11.90
2023-04-19T18:10:19.524Z,11.90
2023-04-19T18:12:47.516Z,11.80
2023-04-19T18:15:17.018Z,11.60
2023-04-19T18:17:52.576Z,13.20
2023-04-19T18:20:21.231Z,12.80
2023-04-19T18:22:50.559Z,13.70
2023-04-19T18:25:18.887Z,12.60
2023-04-19T18:27:47.990Z,12.30
2023-04-19T18:30:16.618Z,11.20
2023-04-19T18:32:44.670Z,10.90
2023-04-19T18:35:12.909Z,10.60
2023-04-19T18:37:41.906Z,11.70
2023-04-19T18:40:11.316Z,11.50
2023-04-19T18:42:39.917Z,12.60
2023-04-19T18:45:08.797Z,12.10
2023-04-19T18:47:36.896Z,12.40
2023-04-19T18:50:06.623Z,12.60
2023-04-19T18:52:38.513Z,12.90
2023-04-19T18:55:07.495Z,13.50
2023-04-19T18:57:39.025Z,13.50
2023-04-19T19:00:11.159Z,13.40
2023-04-19T19:02:41.039Z,14.30
2023-04-19T19:05:14.916Z,12.80
2023-04-19T19:07:43.861Z,12.40
2023-04-19T19:10:18.290Z,13.00
2023-04-19T19:12:47.055Z,12.80
2023-04-19T19:15:15.237Z,12.10
2023-04-19T19:17:49.377Z,12.00
2023-04-19T19:20:19.427Z,12.10
2023-04-19T19:22:49.504Z,12.30
2023-04-19T19:25:20.216Z,11.40
2023-04-19T19:28:06.171Z,13.00
2023-04-19T19:30:40.037Z,11.10
2023-04-19T19:36:15.869Z,12.40
2023-04-19T19:38:51.745Z,13.00
2023-04-19T19:43:51.367Z,12.70
2023-04-19T19:46:22.347Z,12.00
2023-04-19T19:48:53.790Z,12.50
2023-04-19T19:51:48.117Z,12.30
2023-04-19T19:54:11.349Z,12.10
2023-04-19T19:56:53.756Z,12.60
2023-04-19T19:59:30.588Z,11.30
2023-04-19T20:02:03.773Z,11.10
2023-04-19T20:04:35.356Z,11.10
2023-04-19T20:09:37.238Z,10.90
2023-04-19T20:12:05.549Z,10.90
2023-04-19T20:14:38.050Z,11.40
2023-04-19T20:17:08.982Z,11.60
2023-04-19T20:19:37.466Z,11.20
2023-04-19T20:22:05.420Z,11.00
2023-04-19T20:24:35.875Z,11.70
2023-04-19T20:27:04.125Z,11.50
2023-04-19T20:29:32.239Z,11.70
2023-04-19T20:32:00.385Z,12.70
2023-04-19T20:34:28.376Z,11.30
2023-04-19T20:37:00.606Z,12.00
2023-04-19T20:39:29.225Z,12.80
2023-04-19T20:41:57.843Z,12.70
2023-04-19T20:44:25.805Z,13.90
2023-04-19T20:46:53.921Z,13.40
2023-04-19T20:49:23.172Z,13.00
2023-04-19T20:51:51.609Z,12.10
2023-04-19T20:54:22.804Z,12.70
2023-04-19T20:57:05.452Z,12.00
2023-04-19T20:59:36.301Z,11.40
2023-04-19T21:02:33.026Z,11.90
2023-04-19T21:05:01.572Z,11.10
2023-04-19T21:07:36.964Z,11.70
2023-04-19T21:10:11.751Z,11.40
2023-04-19T21:12:51.299Z,12.10
2023-04-19T21:15:28.509Z,12.00
2023-04-19T21:18:07.435Z,11.80
2023-04-19T21:20:35.622Z,13.40
2023-04-19T21:23:07.165Z,11.70
2023-04-19T21:25:39.435Z,11.60
2023-04-19T21:28:07.518Z,12.40
2023-04-19T21:31:04.157Z,13.30
2023-04-19T21:33:41.329Z,12.50
2023-04-19T21:36:09.721Z,12.00
2023-04-19T21:38:37.702Z,11.60
2023-04-19T21:41:17.439Z,12.50
2023-04-19T21:43:57.202Z,12.70
2023-04-19T21:46:25.181Z,13.20
2023-04-19T21:48:56.029Z,13.80
2023-04-19T21:51:24.516Z,13.20
2023-04-19T21:53:52.487Z,13.10
2023-04-19T21:56:20.499Z,12.90
2023-04-19T21:58:48.466Z,13.40
2023-04-19T22:01:18.920Z,12.70
2023-04-19T22:03:47.676Z,12.10
2023-04-19T22:06:17.688Z,11.90
2023-04-19T22:08:48.507Z,12.40
2023-04-19T22:11:16.453Z,13.60
2023-04-19T22:13:44.466Z,13.80
2023-04-19T22:16:12.677Z,13.60
2023-04-19T22:18:41.612Z,13.00
2023-04-19T22:21:36.884Z,13.60
2023-04-19T22:24:05.388Z,12.90
2023-04-19T22:26:36.625Z,15.90
2023-04-19T22:29:07.207Z,14.50
2023-04-19T22:31:35.285Z,14.50
2023-04-19T22:34:03.675Z,13.90
2023-04-19T22:36:36.249Z,14.30
2023-04-19T22:39:07.836Z,13.70
2023-04-19T22:41:35.976Z,14.00
2023-04-19T22:44:05.043Z,14.50
2023-04-19T22:46:33.397Z,14.00
2023-04-19T22:49:04.329Z,13.10
2023-04-19T22:51:32.289Z,12.00
2023-04-19T22:54:09.685Z,11.80
2023-04-19T22:56:39.993Z,13.00
2023-04-19T22:59:11.190Z,12.70
2023-04-19T23:01:39.823Z,14.20
2023-04-19T23:04:22.027Z,13.50
2023-04-19T23:06:50.089Z,14.60
2023-04-19T23:09:19.757Z,12.80
2023-04-19T23:11:50.080Z,11.50
2023-04-19T23:14:20.979Z,12.00
2023-04-19T23:16:49.092Z,11.80
2023-04-19T23:19:17.672Z,12.00
2023-04-19T23:21:55.879Z,11.30
2023-04-19T23:24:27.444Z,11.60
2023-04-19T23:26:56.981Z,12.90
2023-04-19T23:29:29.826Z,11.80
2023-04-19T23:32:02.078Z,12.60
2023-04-19T23:34:30.160Z,13.80
2023-04-19T23:37:00.382Z,13.60
2023-04-19T23:39:30.400Z,13.80
2023-04-19T23:42:02.321Z,12.70
2023-04-19T23:44:32.858Z,12.60
2023-04-19T23:47:03.713Z,11.40
2023-04-19T23:49:32.064Z,11.50
2023-04-19T23:52:03.679Z,12.80
2023-04-19T23:54:35.030Z,12.10
2023-04-19T23:57:03.209Z,12.50
2023-04-19T23:59:33.233Z,12.90
